Time;durP1;ratioP1;P1;durP2;ratioP2;P2;SDS_P1;SDS_P2;PMS_P1;PMS_P2;Temp;Humidity;BMP_temperature;BMP_pressure;BME280_temperature;BME280_humidity;BME280_pressure;Samples;Min_cycle;Max_cycle;Signal;HPM_P1;HPM_P2
2022/08/07 00:01:42;;;;;;;4.25;3.20;;;;;;;21.62;61.83;94362.47;5011221;28;20216;-74
2022/08/07 00:04:09;;;;;;;3.83;2.83;;;;;;;21.63;62.06;94364.03;5011783;28;20209;-74
2022/08/07 00:06:36;;;;;;;6.15;3.35;;;;;;;21.59;61.96;94363.31;5010978;28;20267;-74
2022/08/07 00:09:04;;;;;;;4.63;3.13;;;;;;;21.71;62.10;94367.56;5009781;28;20544;-74
2022/08/07 00:11:31;;;;;;;6.00;3.45;;;;;;;21.71;62.67;94364.78;5011156;28;20734;-74
2022/08/07 00:13:58;;;;;;;3.85;3.05;;;;;;;21.67;62.89;94370.31;5011869;28;20466;-74
2022/08/07 00:16:25;;;;;;;5.32;3.70;;;;;;;21.56;63.50;94369.63;5010622;28;20682;-74
2022/08/07 00:18:53;;;;;;;4.13;3.50;;;;;;;21.63;63.87;94369.56;5011874;28;20209;-74
2022/08/07 00:21:20;;;;;;;4.13;3.33;;;;;;;21.53;63.62;94376.72;5011818;28;20221;-74
2022/08/07 00:23:47;;;;;;;5.88;4.50;;;;;;;21.42;63.27;94367.75;5011322;28;20262;-75
2022/08/07 00:26:14;;;;;;;5.18;3.17;;;;;;;21.36;63.49;94363.03;5010992;28;20560;-74
2022/08/07 00:28:42;;;;;;;6.20;3.25;;;;;;;21.36;63.87;94365.78;5011186;28;20205;-74
2022/08/07 00:31:10;;;;;;;10.85;3.72;;;;;;;21.32;63.55;94359.53;5011006;28;20596;-74
2022/08/07 00:33:38;;;;;;;5.15;4.13;;;;;;;21.35;64.14;94373.28;5011621;28;20291;-73
2022/08/07 00:36:07;;;;;;;6.53;4.47;;;;;;;21.25;64.53;94377.66;5011305;28;20291;-73
2022/08/07 00:38:35;;;;;;;6.00;3.63;;;;;;;21.14;64.51;94374.16;5011710;28;20645;-74
2022/08/07 00:41:03;;;;;;;4.68;3.17;;;;;;;21.14;64.47;94376.13;5010513;28;20201;-73
2022/08/07 00:43:29;;;;;;;6.18;4.55;;;;;;;21.19;64.15;94373.75;5010347;28;20614;-74
2022/08/07 00:45:57;;;;;;;5.55;3.50;;;;;;;21.26;63.91;94376.47;5010556;28;20201;-74
2022/08/07 00:48:23;;;;;;;4.30;3.20;;;;;;;21.38;64.40;94363.44;5011382;28;20275;-74
2022/08/07 00:50:50;;;;;;;4.78;3.60;;;;;;;21.33;64.52;94355.56;5010998;28;20205;-74
2022/08/07 00:53:19;;;;;;;6.90;4.32;;;;;;;21.26;65.30;94368.22;5011109;28;20212;-74
2022/08/07 00:55:45;;;;;;;5.93;4.22;;;;;;;21.21;65.52;94376.09;5010502;28;20611;-73
2022/08/07 00:58:12;;;;;;;5.30;3.65;;;;;;;21.14;64.84;94365.91;5011032;28;20205;-74
2022/08/07 01:00:39;;;;;;;8.27;4.72;;;;;;;21.18;65.79;94361.13;5011060;28;20274;-74
2022/08/07 01:03:06;;;;;;;6.32;4.53;;;;;;;21.03;65.71;94376.19;5011021;28;20247;-74
2022/08/07 01:05:33;;;;;;;4.78;3.35;;;;;;;20.94;66.10;94379.34;5010283;28;20744;-73
2022/08/07 01:08:00;;;;;;;3.17;2.55;;;;;;;20.98;65.65;94379.34;5010933;28;20587;-74
2022/08/07 01:10:29;;;;;;;3.65;2.78;;;;;;;20.94;64.42;94368.34;5010300;28;20267;-75
2022/08/07 01:12:56;;;;;;;3.85;3.20;;;;;;;20.98;64.15;94367.53;5010721;28;20201;-73
2022/08/07 01:15:24;;;;;;;5.00;3.17;;;;;;;20.87;65.52;94362.88;5009263;28;20233;-74
2022/08/07 01:17:51;;;;;;;3.28;2.80;;;;;;;20.76;65.18;94372.34;5010342;28;20209;-74
2022/08/07 01:20:22;;;;;;;3.92;2.90;;;;;;;20.75;64.59;94377.06;5010233;28;20259;-74
2022/08/07 01:22:51;;;;;;;5.93;3.42;;;;;;;20.82;66.30;94374.28;5011025;28;20201;-75
2022/08/07 01:25:19;;;;;;;4.18;3.03;;;;;;;20.79;67.82;94382.53;5010076;28;20209;-74
2022/08/07 01:27:45;;;;;;;5.82;4.45;;;;;;;20.61;68.53;94387.34;5010502;28;20209;-75
2022/08/07 01:30:13;;;;;;;5.60;3.80;;;;;;;20.61;68.54;94390.09;5010229;28;20656;-74
2022/08/07 01:32:39;;;;;;;4.85;3.00;;;;;;;20.48;68.90;94385.00;5010451;28;20731;-75
2022/08/07 01:35:08;;;;;;;3.90;3.45;;;;;;;20.53;68.02;94387.34;5010259;28;20638;-74
2022/08/07 01:37:35;;;;;;;5.68;3.67;;;;;;;20.58;67.40;94384.19;5010516;28;20452;-75
2022/08/07 01:40:05;;;;;;;7.10;4.07;;;;;;;20.74;66.86;94385.72;5010705;28;20266;-74
2022/08/07 01:42:33;;;;;;;7.18;4.25;;;;;;;20.77;66.82;94384.94;5010145;28;20259;-73
2022/08/07 01:45:00;;;;;;;4.70;3.70;;;;;;;20.77;68.04;94390.44;5009802;28;20271;-75
2022/08/07 01:47:27;;;;;;;5.40;3.58;;;;;;;20.85;67.08;94397.50;5010434;28;20251;-75
2022/08/07 01:49:55;;;;;;;5.25;3.53;;;;;;;20.97;66.20;94405.31;5010521;28;20267;-75
2022/08/07 01:52:23;;;;;;;4.32;3.30;;;;;;;21.15;66.50;94414.31;5010019;28;20739;-75
2022/08/07 01:54:53;;;;;;;4.78;3.10;;;;;;;21.21;66.26;94420.97;5010583;28;20276;-75
2022/08/07 01:57:27;;;;;;;5.30;3.47;;;;;;;21.22;66.38;94433.56;5010046;28;20255;-75
2022/08/07 01:59:57;;;;;;;4.80;3.17;;;;;;;21.15;66.02;94447.34;5010357;28;20664;-74
2022/08/07 02:02:35;;;;;;;7.05;3.58;;;;;;;20.68;67.23;94483.66;5009838;28;20664;-75
2022/08/07 02:05:05;;;;;;;5.18;3.55;;;;;;;20.76;67.27;94485.25;5010623;28;20212;-74
2022/08/07 02:07:36;;;;;;;4.82;3.60;;;;;;;20.90;66.99;94487.97;5010045;28;20205;-74
2022/08/07 02:10:04;;;;;;;4.57;3.30;;;;;;;20.99;66.26;94485.56;5010652;28;20227;-74
2022/08/07 02:12:37;;;;;;;7.53;3.92;;;;;;;21.00;67.11;94484.41;5009348;28;20672;-74
2022/08/07 02:15:05;;;;;;;5.63;3.95;;;;;;;20.99;67.44;94496.59;5009244;28;20252;-74
2022/08/07 02:17:33;;;;;;;6.28;3.72;;;;;;;21.01;67.23;94494.22;5009347;28;20612;-74
2022/08/07 02:20:02;;;;;;;4.75;2.92;;;;;;;21.02;67.46;94495.81;5009952;28;20213;-74
2022/08/07 02:22:30;;;;;;;5.13;3.78;;;;;;;21.04;68.51;94511.94;5009855;28;20706;-74
2022/08/07 02:24:58;;;;;;;6.28;3.92;;;;;;;21.08;68.33;94516.22;5010157;28;20204;-74
2022/08/07 02:27:28;;;;;;;4.95;3.50;;;;;;;20.97;69.55;94506.44;5009693;28;20247;-74
2022/08/07 02:29:59;;;;;;;6.35;3.88;;;;;;;20.83;70.47;94491.50;5009907;28;20214;-74
2022/08/07 02:32:27;;;;;;;8.07;5.40;;;;;;;20.92;70.81;94485.56;5013057;28;20266;-74
2022/08/07 02:34:57;;;;;;;6.15;3.67;;;;;;;20.82;73.05;94461.59;5013661;28;20279;-76
2022/08/07 02:37:26;;;;;;;9.80;4.03;;;;;;;20.75;74.58;94450.63;5014074;28;20300;-76
2022/08/07 02:39:55;;;;;;;6.25;2.97;;;;;;;20.53;77.04;94445.13;5014150;28;20216;-76
2022/08/07 02:42:22;;;;;;;4.78;3.85;;;;;;;20.52;75.55;94446.31;5013694;28;20263;-76
2022/08/07 02:44:51;;;;;;;4.78;3.30;;;;;;;20.33;77.50;94432.97;5013460;28;20263;-75
2022/08/07 02:47:20;;;;;;;7.55;3.85;;;;;;;20.30;78.87;94422.75;5012927;28;20259;-76
2022/08/07 02:49:47;;;;;;;6.80;4.05;;;;;;;20.24;81.47;94413.28;5012730;28;20205;-75
2022/08/07 02:52:19;;;;;;;4.85;3.58;;;;;;;20.22;81.12;94413.72;5013251;28;20416;-75
2022/08/07 02:54:48;;;;;;;5.50;3.65;;;;;;;20.14;80.85;94408.59;5013793;28;20611;-75
2022/08/07 02:57:19;;;;;;;8.30;3.63;;;;;;;20.19;80.74;94399.97;5013000;28;20263;-74
2022/08/07 02:59:49;;;;;;;9.13;3.25;;;;;;;20.14;81.75;94398.38;5013405;28;20201;-77
2022/08/07 03:02:17;;;;;;;5.60;3.47;;;;;;;20.17;81.89;94402.31;5013190;28;20278;-77
2022/08/07 03:04:48;;;;;;;4.43;3.30;;;;;;;20.24;81.10;94407.78;5012837;28;20213;-76
2022/08/07 03:07:16;;;;;;;5.13;3.72;;;;;;;20.33;80.99;94399.16;5013165;28;20843;-77
2022/08/07 03:09:44;;;;;;;8.55;3.80;;;;;;;20.43;81.12;94385.41;5013307;28;20299;-77
2022/08/07 03:12:12;;;;;;;5.70;3.42;;;;;;;20.42;82.24;94381.09;5013086;28;20208;-75
2022/08/07 03:14:39;;;;;;;6.43;3.40;;;;;;;20.49;82.33;94377.53;5012769;28;20240;-77
2022/08/07 03:17:07;;;;;;;4.32;3.03;;;;;;;20.45;82.32;94374.78;5012906;28;20205;-76
2022/08/07 03:19:35;;;;;;;4.80;3.10;;;;;;;20.53;82.07;94381.06;5013076;28;20213;-76
2022/08/07 03:22:05;;;;;;;6.15;3.83;;;;;;;20.52;82.06;94374.75;5012663;28;20247;-76
2022/08/07 03:24:33;;;;;;;4.65;3.20;;;;;;;20.70;81.43;94393.22;5013523;28;20193;-76
2022/08/07 03:27:02;;;;;;;4.13;3.15;;;;;;;20.74;80.61;94394.00;5013168;28;20251;-77
2022/08/07 03:29:34;;;;;;;6.10;3.65;;;;;;;20.77;79.81;94385.72;5012788;28;20205;-76
2022/08/07 03:32:02;;;;;;;6.75;3.60;;;;;;;20.92;80.22;94386.44;5000281;28;20288;-76
2022/08/07 03:34:30;;;;;;;4.18;3.17;;;;;;;20.98;80.68;94379.34;5012924;28;20707;-77
2022/08/07 03:36:58;;;;;;;6.97;3.75;;;;;;;21.17;81.20;94392.66;5013253;28;20205;-76
2022/08/07 03:39:29;;;;;;;4.85;3.30;;;;;;;21.10;80.11;94403.69;5013120;28;20255;-77
2022/08/07 03:41:56;;;;;;;7.28;4.00;;;;;;;21.10;80.32;94403.69;5012988;28;20209;-79
2022/08/07 03:44:23;;;;;;;5.30;3.83;;;;;;;21.07;80.06;94398.97;5013241;28;20279;-78
2022/08/07 03:46:50;;;;;;;4.60;3.33;;;;;;;20.91;80.74;94401.38;5012370;28;20201;-77
2022/08/07 03:49:17;;;;;;;9.63;4.78;;;;;;;21.27;79.33;94397.34;5013083;28;20216;-77
2022/08/07 03:51:44;;;;;;;5.43;3.97;;;;;;;21.63;78.71;94413.66;5012214;28;20213;-77
2022/08/07 03:54:11;;;;;;;6.05;3.72;;;;;;;21.53;78.68;94426.34;5012326;28;20205;-77
2022/08/07 03:56:41;;;;;;;6.15;4.10;;;;;;;22.04;77.07;94424.06;5012359;28;20212;-77
2022/08/07 03:59:08;;;;;;;6.47;4.13;;;;;;;22.88;74.29;94421.75;5012515;28;20659;-78
2022/08/07 04:01:40;;;;;;;4.53;3.47;;;;;;;23.35;72.71;94423.56;5012509;28;20279;-78
2022/08/07 04:04:07;;;;;;;8.05;5.85;;;;;;;24.37;69.79;94422.53;5012396;28;20284;-76
2022/08/07 04:06:34;;;;;;;4.80;3.72;;;;;;;25.57;64.47;94421.47;5011949;28;20653;-78
2022/08/07 04:09:02;;;;;;;6.07;3.70;;;;;;;26.09;62.02;94416.78;5012539;28;20685;-78
2022/08/07 04:11:30;;;;;;;5.28;3.70;;;;;;;27.06;59.39;94420.75;5012522;28;20657;-78
2022/08/07 04:14:00;;;;;;;5.07;3.95;;;;;;;27.90;57.23;94408.38;5011720;28;20241;-77
2022/08/07 04:16:28;;;;;;;6.97;4.28;;;;;;;28.60;56.34;94407.34;5011915;28;20294;-77
2022/08/07 04:18:55;;;;;;;12.10;5.13;;;;;;;29.04;54.84;94405.47;5011929;28;20271;-77
2022/08/07 04:21:22;;;;;;;6.50;5.25;;;;;;;29.30;54.21;94408.94;5011949;28;20761;-77
2022/08/07 04:23:49;;;;;;;6.28;5.10;;;;;;;28.94;53.71;94415.00;5012448;28;20615;-77
2022/08/07 04:26:16;;;;;;;6.65;4.72;;;;;;;29.06;55.52;94418.97;5012174;28;20213;-77
2022/08/07 04:28:43;;;;;;;6.03;4.90;;;;;;;29.14;53.01;94412.69;5012722;28;20564;-76
2022/08/07 04:31:12;;;;;;;5.20;4.70;;;;;;;29.61;52.11;94418.19;5012634;28;20263;-76
2022/08/07 04:33:40;;;;;;;5.88;4.95;;;;;;;28.78;53.28;94427.06;5011675;28;20201;-76
2022/08/07 04:36:08;;;;;;;5.47;4.70;;;;;;;28.08;56.88;94425.31;5011840;28;20303;-75
2022/08/07 04:38:36;;;;;;;6.72;5.00;;;;;;;27.42;58.74;94437.22;5011509;28;20803;-75
2022/08/07 04:41:03;;;;;;;5.15;4.57;;;;;;;26.37;60.18;94436.78;5011661;28;20248;-76
2022/08/07 04:43:33;;;;;;;5.82;4.75;;;;;;;26.16;61.08;94441.56;5011570;28;20286;-75
2022/08/07 04:46:05;;;;;;;5.38;4.38;;;;;;;25.76;63.27;94448.44;5011156;28;20668;-77
2022/08/07 04:48:42;;;;;;;5.10;4.57;;;;;;;25.60;64.34;94445.59;5010969;28;20197;-76
2022/08/07 04:51:15;;;;;;;7.40;5.13;;;;;;;25.44;63.20;94441.53;5011253;28;20200;-75
2022/08/07 04:53:46;;;;;;;7.30;5.10;;;;;;;25.53;63.60;94442.97;5010229;28;20201;-75
2022/08/07 04:56:20;;;;;;;6.10;5.10;;;;;;;25.52;62.61;94441.41;5011328;28;20639;-76
2022/08/07 04:58:55;;;;;;;6.53;5.00;;;;;;;26.24;61.32;94446.97;5011428;28;20620;-76
2022/08/07 05:01:32;;;;;;;5.88;4.40;;;;;;;26.62;59.85;94453.63;5010771;28;20605;-76
2022/08/07 05:04:08;;;;;;;6.55;4.82;;;;;;;26.98;59.94;94452.72;5011041;28;20760;-76
2022/08/07 05:06:38;;;;;;;5.20;4.70;;;;;;;28.19;56.59;94450.09;5011107;28;20742;-76
2022/08/07 05:09:10;;;;;;;7.50;4.80;;;;;;;29.77;51.62;94447.13;5011441;28;20217;-76
2022/08/07 05:11:42;;;;;;;7.82;4.85;;;;;;;31.40;47.56;94446.16;5011434;28;20279;-76
2022/08/07 05:14:13;;;;;;;6.80;4.65;;;;;;;30.64;46.41;94452.53;5010297;28;20315;-76
2022/08/07 05:16:46;;;;;;;5.07;4.40;;;;;;;31.39;44.67;94455.81;5010697;28;20221;-75
2022/08/07 05:19:19;;;;;;;5.10;4.60;;;;;;;32.22;44.25;94454.47;5010600;28;20220;-74
2022/08/07 05:21:52;;;;;;;8.88;5.20;;;;;;;30.73;46.74;94460.97;5010891;28;20229;-75
2022/08/07 05:24:20;;;;;;;5.90;4.68;;;;;;;31.31;45.49;94460.91;5009846;28;20611;-74
2022/08/07 05:26:50;;;;;;;5.97;4.63;;;;;;;32.97;42.30;94446.03;5010639;28;20244;-75
2022/08/07 05:29:19;;;;;;;5.90;4.97;;;;;;;34.06;39.89;94454.84;5010489;28;20216;-73
2022/08/07 05:31:48;;;;;;;5.82;4.95;;;;;;;34.84;38.44;94447.72;5010306;28;20738;-73
2022/08/07 05:34:17;;;;;;;5.00;4.20;;;;;;;35.59;37.70;94458.19;5010306;28;20219;-74
2022/08/07 05:36:47;;;;;;;8.90;4.97;;;;;;;36.06;36.36;94453.34;5010169;28;20236;-74
2022/08/07 05:39:16;;;;;;;6.30;4.82;;;;;;;37.12;34.53;94449.31;5010293;28;20814;-74
2022/08/07 05:41:46;;;;;;;5.25;4.70;;;;;;;37.21;33.82;94446.31;5010546;28;20259;-74
2022/08/07 05:44:13;;;;;;;4.60;4.00;;;;;;;36.29;35.32;94469.22;5010115;28;20692;-74
2022/08/07 05:46:42;;;;;;;6.32;5.30;;;;;;;36.93;34.88;94465.13;5010354;28;20259;-74
2022/08/07 05:49:10;;;;;;;6.82;4.70;;;;;;;35.91;35.92;94478.84;5010171;28;20305;-74
2022/08/07 05:51:38;;;;;;;5.28;4.57;;;;;;;36.76;34.67;94472.72;5009783;28;20209;-74
2022/08/07 05:54:05;;;;;;;6.93;4.50;;;;;;;35.44;36.83;94491.31;5009260;28;20307;-74
2022/08/07 05:56:34;;;;;;;5.05;4.55;;;;;;;36.19;35.16;94494.00;5010207;28;20240;-74
2022/08/07 05:59:03;;;;;;;4.97;4.50;;;;;;;36.30;34.91;94493.34;5010223;28;20291;-74
2022/08/07 06:01:31;;;;;;;5.90;4.85;;;;;;;36.80;34.03;94498.66;5010264;28;21020;-74
2022/08/07 06:04:01;;;;;;;5.00;4.50;;;;;;;36.90;34.37;94500.03;5010127;28;20200;-74
2022/08/07 06:06:28;;;;;;;6.68;5.35;;;;;;;36.78;34.45;94499.16;5011658;28;20611;-74
2022/08/07 06:08:57;;;;;;;5.72;5.03;;;;;;;36.84;34.42;94502.03;5014246;28;20621;-74
2022/08/07 06:11:24;;;;;;;5.00;4.45;;;;;;;37.49;34.16;94493.72;5013976;28;20205;-74
2022/08/07 06:13:51;;;;;;;5.78;4.82;;;;;;;36.34;34.92;94501.59;5014072;28;20232;-73
2022/08/07 06:16:22;;;;;;;5.30;4.60;;;;;;;36.88;34.88;94503.38;5013845;28;20581;-74
2022/08/07 06:18:50;;;;;;;6.70;4.38;;;;;;;38.30;33.41;94495.81;5014066;28;20208;-74
2022/08/07 06:21:18;;;;;;;4.72;4.00;;;;;;;38.56;31.94;94493.53;5013184;28;20718;-74
2022/08/07 06:23:45;;;;;;;4.80;4.38;;;;;;;37.95;32.40;94499.84;5013825;28;20664;-74
2022/08/07 06:26:14;;;;;;;5.22;4.32;;;;;;;36.93;33.40;94499.00;5012826;28;20209;-74
2022/08/07 06:28:49;;;;;;;5.38;4.10;;;;;;;35.63;35.29;94509.50;5013932;28;20205;-74
2022/08/07 06:31:16;;;;;;;4.70;4.18;;;;;;;36.49;32.76;94505.81;5012673;28;20212;-74
2022/08/07 06:33:44;;;;;;;4.53;3.67;;;;;;;37.65;30.72;94502.31;5013297;28;20216;-74
2022/08/07 06:36:11;;;;;;;4.78;4.28;;;;;;;37.61;31.79;94500.97;5013342;28;20236;-75
2022/08/07 06:38:38;;;;;;;5.10;4.22;;;;;;;35.60;33.71;94508.44;5013715;28;20684;-74
2022/08/07 06:41:09;;;;;;;5.78;4.00;;;;;;;34.70;33.77;94504.81;5013556;28;20279;-73
2022/08/07 06:43:38;;;;;;;5.20;4.07;;;;;;;35.59;32.41;94506.09;5013576;28;20201;-75
2022/08/07 06:46:05;;;;;;;5.47;4.60;;;;;;;36.10;32.57;94507.47;5012152;28;20251;-72
2022/08/07 06:48:32;;;;;;;5.25;4.32;;;;;;;36.38;32.20;94493.66;5013142;28;20744;-74
2022/08/07 06:51:04;;;;;;;4.57;3.90;;;;;;;37.66;31.72;94497.41;5012671;28;20255;-74
2022/08/07 06:53:33;;;;;;;5.75;4.70;;;;;;;37.61;31.18;94489.66;5012728;28;20255;-74
2022/08/07 06:56:01;;;;;;;5.35;4.60;;;;;;;37.90;31.02;94499.81;5012255;28;20229;-76
2022/08/07 06:58:29;;;;;;;4.65;4.15;;;;;;;37.03;32.04;94497.56;5013185;28;20267;-75
2022/08/07 07:00:58;;;;;;;5.43;4.43;;;;;;;35.92;34.18;94509.34;5012933;28;20205;-74
2022/08/07 07:03:26;;;;;;;5.13;4.32;;;;;;;35.24;34.45;94504.09;5011762;28;20205;-77
2022/08/07 07:05:53;;;;;;;5.78;5.05;;;;;;;33.71;36.63;94514.50;5012993;28;20208;-75
2022/08/07 07:08:26;;;;;;;6.88;4.85;;;;;;;33.37;38.10;94515.06;5013403;28;20271;-73
2022/08/07 07:10:53;;;;;;;6.07;5.15;;;;;;;33.01;37.55;94519.63;5013230;28;20232;-74
2022/08/07 07:13:26;;;;;;;5.93;5.22;;;;;;;32.15;39.10;94516.44;5012919;28;20568;-72
2022/08/07 07:16:01;;;;;;;6.00;4.53;;;;;;;32.38;38.96;94507.41;5000571;28;20225;-76
2022/08/07 07:18:34;;;;;;;6.55;5.13;;;;;;;32.35;39.31;94510.38;5012621;28;20374;-75
2022/08/07 07:21:06;;;;;;;6.10;5.10;;;;;;;31.63;40.83;94515.53;5013085;28;20275;-75
2022/08/07 07:23:33;;;;;;;5.78;4.80;;;;;;;31.54;40.93;94512.75;5012413;28;20197;-74
2022/08/07 07:26:03;;;;;;;6.20;5.30;;;;;;;30.65;43.01;94518.44;5012957;28;20279;-72
2022/08/07 07:28:36;;;;;;;6.38;5.13;;;;;;;30.97;42.81;94514.34;5011878;28;20251;-72
2022/08/07 07:31:08;;;;;;;5.95;4.95;;;;;;;31.45;41.92;94509.94;5013032;28;20204;-73
2022/08/07 07:33:38;;;;;;;7.45;5.35;;;;;;;32.06;40.39;94520.06;5012756;28;20208;-77
2022/08/07 07:36:07;;;;;;;6.18;5.20;;;;;;;31.67;40.33;94510.59;5013248;28;20303;-73
2022/08/07 07:38:34;;;;;;;7.72;4.82;;;;;;;31.34;41.43;94515.22;4999917;28;20205;-76
2022/08/07 07:41:05;;;;;;;5.97;4.68;;;;;;;31.05;41.36;94521.19;5012431;28;20205;-74
2022/08/07 07:43:33;;;;;;;5.25;4.20;;;;;;;29.79;42.71;94512.47;5012825;28;20201;-73
2022/08/07 07:46:02;;;;;;;6.70;5.15;;;;;;;28.96;44.44;94519.31;5012229;28;20640;-76
2022/08/07 07:48:31;;;;;;;6.10;5.38;;;;;;;29.33;44.20;94531.63;5012374;28;20503;-74
2022/08/07 07:50:59;;;;;;;7.13;5.30;;;;;;;29.78;42.93;94536.06;5011943;28;20738;-73
2022/08/07 07:53:28;;;;;;;8.75;6.50;;;;;;;30.43;41.57;94532.44;5012641;28;20292;-73
2022/08/07 07:55:58;;;;;;;11.07;7.03;;;;;;;29.45;43.08;94549.56;5012151;28;21402;-74
2022/08/07 07:58:28;;;;;;;13.55;10.45;;;;;;;29.11;43.98;94530.00;5007243;28;20944;-74
2022/08/07 08:00:55;;;;;;;12.70;8.32;;;;;;;29.23;43.82;94546.72;5006256;28;20251;-81
2022/08/07 08:03:24;;;;;;;11.07;8.20;;;;;;;29.50;42.85;94529.47;5011688;28;20209;-74
2022/08/07 08:05:53;;;;;;;10.45;7.90;;;;;;;30.05;41.70;94529.91;5010214;28;20626;-74
2022/08/07 08:08:20;;;;;;;9.73;6.78;;;;;;;29.69;41.47;94542.34;5011087;28;20286;-74
2022/08/07 08:10:47;;;;;;;11.23;7.50;;;;;;;29.70;42.21;94549.47;5011725;28;20286;-75
2022/08/07 08:13:16;;;;;;;10.52;8.40;;;;;;;29.49;42.50;94544.66;5011296;28;20644;-74
2022/08/07 08:15:46;;;;;;;8.70;7.68;;;;;;;29.88;42.56;94532.09;5010166;28;20240;-79
2022/08/07 08:18:14;;;;;;;10.00;8.27;;;;;;;29.39;42.95;94543.00;4999121;28;20281;-73
2022/08/07 08:20:42;;;;;;;8.82;7.38;;;;;;;29.69;42.87;94524.78;5010693;28;20233;-73
2022/08/07 08:28:50;;;;;;;7.00;5.65;;;;;;;28.90;44.11;94531.47;5009772;28;20254;-72
2022/08/07 08:31:22;;;;;;;7.53;5.88;;;;;;;29.72;43.39;94531.50;5010842;28;20204;-73
2022/08/07 08:33:53;;;;;;;6.50;5.05;;;;;;;29.49;42.59;94532.72;5010847;28;20197;-75
2022/08/07 08:36:21;;;;;;;7.20;5.53;;;;;;;29.50;43.53;94534.28;5009684;28;20223;-77
2022/08/07 08:38:50;;;;;;;8.75;5.93;;;;;;;28.82;44.06;94542.09;5009654;28;20209;-73
2022/08/07 08:41:23;;;;;;;6.40;5.30;;;;;;;28.93;43.78;94531.38;5010112;28;20672;-75
2022/08/07 08:43:59;;;;;;;7.38;5.53;;;;;;;28.91;43.80;94536.63;5010641;28;20668;-73
2022/08/07 08:46:37;;;;;;;7.10;5.72;;;;;;;28.40;45.99;94549.75;5010742;28;20284;-73
2022/08/07 08:49:10;;;;;;;8.45;4.97;;;;;;;28.64;44.67;94547.41;5010315;28;20201;-73
2022/08/07 08:51:46;;;;;;;7.90;5.75;;;;;;;28.23;44.66;94557.41;5010167;28;20201;-73
2022/08/07 08:54:23;;;;;;;6.53;5.63;;;;;;;27.71;46.45;94556.91;5010427;28;20204;-73
2022/08/07 08:56:52;;;;;;;9.13;5.82;;;;;;;27.88;45.53;94559.19;5005026;28;20304;-72
2022/08/07 08:59:27;;;;;;;6.65;5.30;;;;;;;27.83;46.06;94556.19;5007779;28;20671;-74
2022/08/07 09:02:00;;;;;;;8.30;5.80;;;;;;;28.51;45.71;94543.84;5010731;28;20208;-73
2022/08/07 09:04:36;;;;;;;6.30;4.93;;;;;;;28.90;44.17;94535.06;5010197;28;20299;-75
2022/08/07 09:07:11;;;;;;;5.78;4.97;;;;;;;28.88;44.44;94545.88;5010694;28;20227;-73
2022/08/07 09:09:58;;;;;;;7.47;5.43;;;;;;;29.17;43.73;94528.19;5010682;28;20201;-72
2022/08/07 09:12:42;;;;;;;9.68;5.82;;;;;;;28.86;43.98;94539.94;5010449;28;20204;-73
2022/08/07 09:15:29;;;;;;;6.30;4.80;;;;;;;29.30;44.21;94528.94;5009955;28;20244;-73
2022/08/07 09:18:14;;;;;;;6.05;4.88;;;;;;;29.54;43.03;94530.09;5010473;28;20224;-74
2022/08/07 09:20:49;;;;;;;5.97;5.03;;;;;;;29.52;43.33;94526.97;5010646;28;20233;-73
2022/08/07 09:23:27;;;;;;;7.97;5.78;;;;;;;30.03;43.31;94529.59;5010392;28;20201;-74
2022/08/07 09:26:11;;;;;;;6.78;5.55;;;;;;;29.72;42.79;94523.13;5010685;28;20239;-77
2022/08/07 09:28:40;;;;;;;7.13;5.25;;;;;;;29.55;42.39;94519.72;5010029;28;20299;-74
2022/08/07 09:31:13;;;;;;;6.63;4.95;;;;;;;29.61;42.92;94513.13;5010194;28;20693;-75
2022/08/07 09:33:52;;;;;;;6.70;5.15;;;;;;;29.81;43.27;94509.22;5009832;28;20620;-73
2022/08/07 09:36:27;;;;;;;6.95;5.38;;;;;;;29.84;41.90;94495.13;5010974;28;20700;-77
2022/08/07 09:39:02;;;;;;;6.00;5.10;;;;;;;30.17;42.68;94494.72;5010384;28;20193;-76
2022/08/07 09:41:44;;;;;;;6.18;4.70;;;;;;;29.70;42.13;94498.44;5010652;28;20207;-75
2022/08/07 09:44:22;;;;;;;6.00;4.50;;;;;;;29.76;41.55;94504.22;5010108;28;20193;-74
2022/08/07 09:47:02;;;;;;;5.72;4.60;;;;;;;30.12;40.14;94484.91;5007397;28;20714;-73
2022/08/07 09:49:48;;;;;;;5.35;4.57;;;;;;;30.25;39.32;94505.19;5006972;28;20252;-76
2022/08/07 09:52:22;;;;;;;5.93;4.53;;;;;;;30.72;39.41;94487.38;5007846;28;20576;-74
2022/08/07 09:54:55;;;;;;;5.63;4.68;;;;;;;30.54;40.48;94498.50;4999753;28;20202;-73
2022/08/07 09:57:54;;;;;;;5.40;4.40;;;;;;;30.02;40.77;94497.28;5005345;28;20618;-72
2022/08/07 10:00:22;;;;;;;4.95;4.32;;;;;;;30.16;41.16;94491.16;5009478;28;20420;-73
2022/08/07 10:03:07;;;;;;;5.70;4.50;;;;;;;30.28;40.75;94493.09;5005512;28;20284;-73
2022/08/07 10:05:55;;;;;;;7.05;4.50;;;;;;;29.73;40.32;94468.81;5006096;28;20259;-73
2022/08/07 10:08:55;;;;;;;6.40;4.93;;;;;;;29.47;41.42;94474.53;5009172;28;20340;-75
2022/08/07 10:11:36;;;;;;;6.40;4.28;;;;;;;28.95;42.51;94478.72;5001182;28;20653;-73
2022/08/07 10:14:13;;;;;;;6.35;4.63;;;;;;;28.56;43.53;94484.75;5007528;28;20225;-74
2022/08/07 10:16:59;;;;;;;6.03;4.38;;;;;;;28.73;42.80;94482.59;5009689;28;20911;-73
2022/08/07 10:19:47;;;;;;;5.50;4.78;;;;;;;29.23;42.37;94471.38;5009596;28;20197;-73
2022/08/07 10:22:38;;;;;;;5.45;4.05;;;;;;;29.88;41.36;94464.25;5009068;28;20199;-73
2022/08/07 10:25:16;;;;;;;7.57;4.93;;;;;;;29.94;40.75;94468.00;5009588;28;20753;-73
2022/08/07 10:28:10;;;;;;;5.03;4.22;;;;;;;30.90;38.18;94464.25;5009381;28;20193;-74
2022/08/07 10:30:53;;;;;;;4.20;3.53;;;;;;;31.52;37.27;94459.22;4998366;28;20193;-74
2022/08/07 10:33:41;;;;;;;4.95;4.25;;;;;;;30.94;38.68;94459.28;5007949;28;20193;-74
2022/08/07 10:36:24;;;;;;;5.07;4.32;;;;;;;30.51;38.80;94475.00;5004754;28;20193;-75
2022/08/07 10:38:58;;;;;;;6.45;4.80;;;;;;;29.74;40.94;94471.16;4998574;28;20301;-73
2022/08/07 10:41:33;;;;;;;6.30;4.55;;;;;;;29.74;40.75;94475.97;5009944;28;20518;-72
2022/08/07 10:44:11;;;;;;;4.90;4.28;;;;;;;29.51;41.71;94475.19;5009363;28;20204;-73
2022/08/07 10:46:49;;;;;;;6.63;4.80;;;;;;;29.51;43.00;94486.38;5009429;28;20293;-74
2022/08/07 10:49:26;;;;;;;6.70;4.07;;;;;;;29.92;39.45;94476.09;5009043;28;20208;-78
2022/08/07 10:51:57;;;;;;;5.90;4.50;;;;;;;29.89;39.50;94471.41;5008821;28;20196;-73
2022/08/07 10:54:32;;;;;;;5.18;4.18;;;;;;;29.79;39.25;94483.78;5006089;28;20656;-73
2022/08/07 10:57:10;;;;;;;6.68;4.50;;;;;;;29.97;39.62;94472.72;5012566;28;20217;-73
2022/08/07 10:59:59;;;;;;;4.93;4.07;;;;;;;29.61;40.26;94474.03;5009854;28;20225;-72
2022/08/07 11:02:35;;;;;;;5.63;4.40;;;;;;;30.01;39.61;94457.38;5006251;28;20206;-71
2022/08/07 11:05:28;;;;;;;5.47;4.28;;;;;;;29.96;39.30;94471.94;5010708;28;20259;-74
2022/08/07 11:08:02;;;;;;;4.57;3.88;;;;;;;30.07;39.29;94460.34;5011833;28;20204;-73
2022/08/07 11:10:36;;;;;;;4.95;4.10;;;;;;;30.05;40.37;94468.44;5012606;28;20193;-74
2022/08/07 11:13:09;;;;;;;5.32;4.15;;;;;;;29.90;40.19;94472.97;5012615;28;20278;-77
2022/08/07 11:15:40;;;;;;;8.15;4.90;;;;;;;28.99;43.64;94468.19;5012233;28;20229;-77
2022/08/07 11:18:16;;;;;;;5.65;4.43;;;;;;;28.84;44.40;94475.47;5011969;28;20224;-74
2022/08/07 11:20:51;;;;;;;6.03;5.07;;;;;;;28.72;44.50;94486.63;5012033;28;20221;-76
2022/08/07 11:23:24;;;;;;;8.13;5.10;;;;;;;28.89;44.47;94483.28;5012062;28;20211;-74
2022/08/07 11:25:57;;;;;;;7.03;5.60;;;;;;;28.98;43.72;94472.19;5011328;28;20660;-73
2022/08/07 11:28:29;;;;;;;4.97;4.22;;;;;;;29.22;42.51;94471.81;5008563;28;20197;-73
2022/08/07 11:31:03;;;;;;;4.75;4.07;;;;;;;29.53;42.37;94472.69;5006477;28;20652;-75
2022/08/07 11:33:41;;;;;;;8.77;4.68;;;;;;;29.83;41.50;94501.16;5010340;28;20205;-74
2022/08/07 11:36:18;;;;;;;4.55;3.85;;;;;;;29.52;42.82;94448.06;5010869;28;20212;-80
2022/08/07 11:38:52;;;;;;;6.18;4.70;;;;;;;29.15;44.42;94463.69;5009999;28;20228;-79
2022/08/07 11:41:23;;;;;;;7.28;4.53;;;;;;;28.97;44.65;94467.84;5011104;28;20209;-73
2022/08/07 11:44:01;;;;;;;4.30;3.88;;;;;;;28.43;43.23;94478.41;5010748;28;20247;-73
2022/08/07 11:46:43;;;;;;;6.57;4.60;;;;;;;28.44;43.01;94466.00;5010305;28;20266;-76
2022/08/07 11:49:23;;;;;;;5.22;4.65;;;;;;;28.45;43.75;94473.16;5010806;28;20283;-74
2022/08/07 11:52:03;;;;;;;6.03;4.53;;;;;;;28.18;44.91;94488.31;5010333;28;20203;-75
2022/08/07 11:54:53;;;;;;;6.25;4.82;;;;;;;27.92;45.83;94492.25;5010110;28;20224;-80
2022/08/07 11:57:22;;;;;;;6.53;4.90;;;;;;;28.05;46.45;94484.69;5010079;28;20236;-76
2022/08/07 12:00:05;;;;;;;7.15;5.43;;;;;;;28.12;46.54;94495.63;5010630;28;20252;-75